Time;durP1;ratioP1;P1;durP2;ratioP2;P2;SDS_P1;SDS_P2;PMS_P1;PMS_P2;Temp;Humidity;BMP_temperature;BMP_pressure;BME280_temperature;BME280_humidity;BME280_pressure;Samples;Min_cycle;Max_cycle;Signal;HPM_P1;HPM_P2
2021/06/16 00:06:48;;;;;;;;;;;;;;;17.79;59.43;101511.75;15679028;28;20556;-62
2021/06/16 00:14:22;;;;;;;1999.90;999.90;;;;;;;17.46;60.17;101512.03;15677547;28;20297;-63
2021/06/16 00:21:54;;;;;;;1999.90;999.90;;;;;;;17.23;61.07;101517.44;15677335;28;20121;-63
2021/06/16 00:29:28;;;;;;;1999.90;999.90;;;;;;;17.11;61.88;101525.16;15657710;28;20132;-63
2021/06/16 00:37:01;;;;;;;1999.90;999.90;;;;;;;16.96;61.67;101529.53;15675954;28;20083;-64
2021/06/16 00:44:35;;;;;;;1999.90;999.90;;;;;;;16.86;61.51;101524.38;15657893;28;20065;-64
2021/06/16 00:52:07;;;;;;;1999.90;999.90;;;;;;;16.81;61.32;101521.81;15657720;28;20049;-62
2021/06/16 00:59:51;;;;;;;1999.90;999.90;;;;;;;16.91;61.82;101526.97;15670464;22;20158;-63
2021/06/16 01:07:27;;;;;;;1999.90;999.90;;;;;;;16.84;60.96;101527.56;15678055;28;20124;-65
2021/06/16 01:15:03;;;;;;;1999.90;999.90;;;;;;;16.81;61.39;101519.81;15676748;28;20083;-65
2021/06/16 01:22:42;;;;;;;1999.90;999.90;;;;;;;16.78;61.90;101526.19;15658109;28;20114;-64
2021/06/16 01:30:17;;;;;;;1999.90;999.90;;;;;;;16.78;61.64;101529.00;15675374;28;20048;-65
2021/06/16 01:37:49;;;;;;;1999.90;999.90;;;;;;;16.45;60.98;101518.66;15675153;28;20386;-66
2021/06/16 01:45:23;;;;;;;1999.90;999.90;;;;;;;16.57;61.92;101533.91;15675767;28;20057;-65
2021/06/16 01:52:58;;;;;;;1999.90;999.90;;;;;;;16.24;61.56;101525.59;15657356;28;20041;-65
2021/06/16 02:00:33;;;;;;;1999.90;999.90;;;;;;;16.33;61.75;101527.13;15658249;28;20520;-64
2021/06/16 02:08:08;;;;;;;1999.90;999.90;;;;;;;16.10;62.36;101525.97;15656458;28;20041;-66
2021/06/16 02:15:47;;;;;;;1999.90;999.90;;;;;;;15.92;62.15;101528.16;15673856;28;20098;-65
2021/06/16 02:23:22;;;;;;;1999.90;999.90;;;;;;;15.99;61.15;101525.59;15672929;28;20168;-66
2021/06/16 02:30:55;;;;;;;1999.90;999.90;;;;;;;15.86;61.57;101526.75;15672423;28;20136;-66
2021/06/16 02:38:29;;;;;;;;;;;;;;;15.80;61.79;101517.72;15656440;28;20072;-66
2021/06/16 02:46:03;;;;;;;1999.90;999.90;;;;;;;15.55;62.19;101516.81;15676012;28;19924;-65
2021/06/16 02:53:36;;;;;;;1999.90;999.90;;;;;;;15.23;61.48;101514.84;15675485;28;20128;-65
2021/06/16 03:01:14;;;;;;;1999.90;999.90;;;;;;;15.37;61.84;101520.16;15688076;28;20152;-66
2021/06/16 03:08:47;;;;;;;1999.90;999.90;;;;;;;15.44;61.36;101517.59;15673859;28;20041;-65
2021/06/16 03:16:21;;;;;;;1999.90;999.90;;;;;;;15.37;61.87;101518.16;15676557;28;20043;-66
2021/06/16 03:23:54;;;;;;;1999.90;999.90;;;;;;;15.43;61.27;101518.78;15697907;28;20045;-65
2021/06/16 03:31:28;;;;;;;1999.90;999.90;;;;;;;15.33;61.05;101522.84;15701873;28;20045;-66
2021/06/16 03:39:01;;;;;;;1999.90;999.90;;;;;;;15.37;60.55;101523.78;15701873;28;20052;-66
2021/06/16 03:46:37;;;;;;;1999.90;999.90;;;;;;;15.67;60.72;101537.75;15700746;28;20048;-66
2021/06/16 03:54:12;;;;;;;1999.90;999.90;;;;;;;15.77;59.93;101526.88;15683134;28;20106;-66
2021/06/16 04:01:46;;;;;;;1999.90;999.90;;;;;;;15.75;59.80;101515.16;15700399;28;20128;-65
2021/06/16 04:09:18;;;;;;;1999.90;999.90;;;;;;;15.94;60.47;101520.19;15697102;28;20041;-66
2021/06/16 04:16:55;;;;;;;1999.90;999.90;;;;;;;16.13;59.25;101517.63;15681336;28;20119;-66
2021/06/16 04:24:27;;;;;;;1999.90;999.90;;;;;;;16.06;58.87;101523.03;15685962;28;20040;-65
2021/06/16 04:32:01;;;;;;;1999.90;999.90;;;;;;;16.32;58.20;101524.66;15698707;28;20466;-66
2021/06/16 04:39:33;;;;;;;1999.90;999.90;;;;;;;16.63;57.67;101522.06;15701027;28;20060;-66
2021/06/16 04:47:07;;;;;;;1999.90;999.90;;;;;;;16.65;57.74;101524.50;15704798;28;20150;-66
2021/06/16 04:54:39;;;;;;;1999.90;999.90;;;;;;;16.87;57.34;101526.03;15703193;28;20110;-66
2021/06/16 05:02:12;;;;;;;1999.90;999.90;;;;;;;17.10;57.10;101526.31;15697641;28;20053;-66
2021/06/16 05:09:44;;;;;;;1999.90;999.90;;;;;;;17.21;56.59;101525.47;15653908;28;20037;-65
2021/06/16 05:17:19;;;;;;;1999.90;999.90;;;;;;;17.50;55.60;101526.25;15655732;28;20106;-65
2021/06/16 05:24:51;;;;;;;1999.90;999.90;;;;;;;17.87;54.75;101521.25;15673866;28;20049;-66
2021/06/16 05:32:25;;;;;;;1999.90;999.90;;;;;;;18.48;52.92;101525.59;15674494;28;20052;-66
2021/06/16 05:39:57;;;;;;;1999.90;999.90;;;;;;;18.87;51.11;101518.84;15675883;28;20095;-65
2021/06/16 05:47:30;;;;;;;1999.90;999.90;;;;;;;19.72;49.84;101522.63;15677147;28;20049;-69
2021/06/16 05:55:03;;;;;;;1999.90;999.90;;;;;;;20.36;47.44;101523.72;15677014;28;20359;-68
2021/06/16 06:02:36;;;;;;;1999.90;999.90;;;;;;;21.04;48.35;101527.56;15660262;28;20041;-68
2021/06/16 06:10:11;;;;;;;1999.90;999.90;;;;;;;20.65;46.17;101525.03;15680316;28;20045;-69
2021/06/16 06:17:45;;;;;;;1999.90;999.90;;;;;;;20.93;45.36;101520.94;15662734;28;20477;-70
2021/06/16 06:25:22;;;;;;;1999.90;999.90;;;;;;;21.76;44.56;101520.72;15683462;28;20560;-68
2021/06/16 06:32:55;;;;;;;1999.90;999.90;;;;;;;22.22;43.01;101515.53;15664874;28;20099;-66
2021/06/16 06:40:27;;;;;;;1999.90;999.90;;;;;;;22.94;43.09;101511.97;15668057;28;20095;-67
2021/06/16 06:48:01;;;;;;;1999.90;999.90;;;;;;;22.95;41.47;101515.63;15667661;28;20068;-68
2021/06/16 06:55:33;;;;;;;1999.90;999.90;;;;;;;23.33;41.46;101519.84;15687884;22;20042;-65
2021/06/16 07:03:07;;;;;;;1999.90;999.90;;;;;;;23.63;39.79;101513.03;15679313;28;20049;-64
2021/06/16 07:10:39;;;;;;;1999.90;999.90;;;;;;;24.19;39.13;101510.25;15680362;28;20228;-64
2021/06/16 07:18:13;;;;;;;1999.90;999.90;;;;;;;24.23;39.70;101513.09;15669066;28;20132;-63
2021/06/16 07:25:45;;;;;;;1999.90;999.90;;;;;;;25.02;38.91;101505.25;15677541;28;20143;-63
2021/06/16 07:33:19;;;;;;;1999.90;999.90;;;;;;;26.02;37.37;101502.66;15681427;28;20227;-63
2021/06/16 07:40:51;;;;;;;1999.90;999.90;;;;;;;26.45;38.35;101505.97;15682940;28;20132;-64
2021/06/16 07:48:25;;;;;;;1999.90;999.90;;;;;;;26.19;38.15;101498.03;15681728;28;20069;-63
2021/06/16 07:55:57;;;;;;;1999.90;999.90;;;;;;;27.13;36.90;101498.72;15680322;28;20049;-65
2021/06/16 08:03:30;;;;;;;1999.90;999.90;;;;;;;26.31;37.84;101497.50;15661906;28;20050;-60
2021/06/16 08:11:03;;;;;;;1999.90;999.90;;;;;;;27.09;36.49;101498.75;15678201;28;20052;-65
2021/06/16 08:18:37;;;;;;;1999.90;999.90;;;;;;;27.88;36.01;101487.81;15643987;28;20458;-65
2021/06/16 08:26:09;;;;;;;1999.90;999.90;;;;;;;27.86;34.80;101478.03;15677867;28;20429;-66
2021/06/16 08:33:43;;;;;;;1999.90;999.90;;;;;;;28.34;35.31;101479.69;15660401;28;20120;-66
2021/06/16 08:41:17;;;;;;;1999.90;999.90;;;;;;;28.01;35.43;101481.47;15676545;28;20110;-64
2021/06/16 08:48:51;;;;;;;1999.90;999.90;;;;;;;29.43;33.67;101489.41;15655344;28;20037;-65
2021/06/16 08:56:23;;;;;;;1999.90;999.90;;;;;;;28.96;33.56;101483.84;15656741;28;20067;-64
2021/06/16 09:03:57;;;;;;;1999.90;999.90;;;;;;;29.80;33.78;101482.38;15657065;28;20037;-64
2021/06/16 09:11:47;;;;;;;1999.90;999.90;;;;;;;30.73;34.24;101475.88;15658062;28;20045;-65
2021/06/16 09:19:22;;;;;;;1999.90;999.90;;;;;;;30.35;33.74;101487.19;15674120;28;20051;-65
2021/06/16 09:26:57;;;;;;;1999.90;999.90;;;;;;;30.37;31.83;101476.03;15655537;28;20524;-64
2021/06/16 09:34:31;;;;;;;1999.90;999.90;;;;;;;30.76;31.76;101465.53;15654244;28;20091;-65
2021/06/16 09:42:11;;;;;;;1999.90;999.90;;;;;;;31.11;29.73;101465.72;15653577;28;20048;-64
2021/06/16 09:49:53;;;;;;;1999.90;999.90;;;;;;;31.09;28.42;101465.38;15671919;28;20047;-65
2021/06/16 09:57:26;;;;;;;1999.90;999.90;;;;;;;31.37;29.31;101461.66;15671942;28;20147;-65
2021/06/16 10:05:00;;;;;;;1999.90;999.90;;;;;;;31.77;28.26;101438.94;15672811;28;20060;-64
2021/06/16 10:12:34;;;;;;;1999.90;999.90;;;;;;;32.54;28.15;101438.78;15672269;28;20041;-64
2021/06/16 10:20:10;;;;;;;1999.90;999.90;;;;;;;32.31;28.47;101431.38;15670521;28;20061;-65
2021/06/16 10:27:48;;;;;;;1999.90;999.90;;;;;;;32.29;30.18;101411.59;15654205;28;20080;-65
2021/06/16 10:35:36;;;;;;;1999.90;999.90;;;;;;;32.76;29.12;101407.03;15669266;28;20494;-65
2021/06/16 10:43:19;;;;;;;1999.90;999.90;;;;;;;33.91;27.38;101409.88;15667282;28;20258;-65
2021/06/16 10:51:03;;;;;;;1999.90;999.90;;;;;;;34.53;27.92;101400.94;15667753;28;20049;-67
2021/06/16 10:58:47;;;;;;;1999.90;999.90;;;;;;;34.36;27.07;101397.53;15668325;28;20056;-64
2021/06/16 11:06:39;;;;;;;1999.90;999.90;;;;;;;34.46;25.79;101384.69;15671584;28;20091;-66
2021/06/16 11:14:46;;;;;;;1999.90;999.90;;;;;;;35.53;24.03;101386.19;15653560;28;20135;-65
2021/06/16 11:22:36;;;;;;;1999.90;999.90;;;;;;;35.58;24.77;101381.81;15680434;28;20071;-66
2021/06/16 11:30:14;;;;;;;1999.90;999.90;;;;;;;34.57;25.27;101375.50;15661214;28;20124;-65
2021/06/16 11:37:59;;;;;;;1999.90;999.90;;;;;;;34.13;25.80;101367.91;15679399;28;20049;-64
2021/06/16 11:45:33;;;;;;;1999.90;999.90;;;;;;;33.94;25.66;101359.69;15678971;28;20063;-65
2021/06/16 11:53:08;;;;;;;1999.90;999.90;;;;;;;35.40;24.63;101350.00;15676910;28;20526;-65
2021/06/16 12:00:41;;;;;;;1999.90;999.90;;;;;;;34.78;24.78;101341.78;15678054;28;20033;-66
2021/06/16 12:08:23;;;;;;;1999.90;999.90;;;;;;;34.95;25.05;101331.47;15675632;28;20044;-64
2021/06/16 12:15:55;;;;;;;1999.90;999.90;;;;;;;37.07;23.99;101322.78;15650416;28;20060;-64
2021/06/16 12:23:32;;;;;;;1999.90;999.90;;;;;;;38.08;21.92;101314.19;15665565;28;20123;-65
2021/06/16 12:31:07;;;;;;;1999.90;999.90;;;;;;;36.80;23.12;101304.34;15650531;28;20091;-65
2021/06/16 12:38:43;;;;;;;1999.90;999.90;;;;;;;38.80;21.07;101304.66;15676802;28;20456;-64
2021/06/16 12:46:20;;;;;;;1999.90;999.90;;;;;;;38.18;22.26;101294.44;15659886;28;20091;-64
2021/06/16 12:53:53;;;;;;;1999.90;999.90;;;;;;;38.49;21.55;101293.72;15658239;28;20100;-64
2021/06/16 13:01:26;;;;;;;1999.90;999.90;;;;;;;35.97;23.63;101280.31;15699584;23;20139;-63
2021/06/16 13:09:02;;;;;;;1999.90;999.90;;;;;;;34.64;26.57;101265.03;15661133;28;20497;-64
2021/06/16 13:16:34;;;;;;;1999.90;999.90;;;;;;;34.23;26.43;101264.47;15649959;28;20061;-64
2021/06/16 13:24:09;;;;;;;1999.90;999.90;;;;;;;32.90;27.75;101256.19;15652442;28;20350;-63
2021/06/16 13:31:47;;;;;;;1999.90;999.90;;;;;;;33.85;29.02;101241.78;15678549;28;20049;-64
2021/06/16 13:39:21;;;;;;;1999.90;999.90;;;;;;;33.18;28.93;101240.56;15678339;28;20072;-63
2021/06/16 13:46:53;;;;;;;1999.90;999.90;;;;;;;32.20;29.40;101217.25;15679243;28;20041;-61
2021/06/16 13:54:26;;;;;;;1999.90;999.90;;;;;;;31.97;29.68;101207.00;15661438;28;20048;-63
2021/06/16 14:01:59;;;;;;;1999.90;999.90;;;;;;;31.51;30.13;101209.50;15660455;28;20053;-64
2021/06/16 14:09:32;;;;;;;1999.90;999.90;;;;;;;32.05;28.57;101194.72;15676684;28;20094;-69
2021/06/16 14:17:04;;;;;;;1999.90;999.90;;;;;;;31.62;29.87;101194.69;15658319;28;20051;-64
2021/06/16 14:24:39;;;;;;;1999.90;999.90;;;;;;;31.56;30.59;101192.41;15677960;28;20041;-64
2021/06/16 14:32:11;;;;;;;1999.90;999.90;;;;;;;32.13;28.82;101184.53;15677628;28;20553;-64
2021/06/16 14:39:45;;;;;;;1999.90;999.90;;;;;;;31.12;30.27;101174.19;15676142;28;20083;-63
2021/06/16 14:47:19;;;;;;;1999.90;999.90;;;;;;;31.48;30.66;101164.31;15659879;28;20123;-64
2021/06/16 14:54:53;;;;;;;1999.90;999.90;;;;;;;31.42;31.44;101151.75;15685587;28;20049;-62
2021/06/16 15:02:25;;;;;;;1999.90;999.90;;;;;;;31.14;31.26;101153.53;15688394;28;20524;-63
2021/06/16 15:10:00;;;;;;;1999.90;999.90;;;;;;;30.92;31.37;101148.50;15688003;28;20044;-62
2021/06/16 15:17:33;;;;;;;1999.90;999.90;;;;;;;30.82;30.56;101146.00;15686978;28;20056;-63
2021/06/16 15:25:09;;;;;;;1999.90;999.90;;;;;;;30.77;31.38;101138.75;15687454;28;20069;-64
2021/06/16 15:32:41;;;;;;;1999.90;999.90;;;;;;;30.62;31.11;101128.94;15687282;28;20037;-63
2021/06/16 15:40:15;;;;;;;1999.90;999.90;;;;;;;30.87;30.89;101123.19;15685413;28;20049;-63
2021/06/16 15:47:47;;;;;;;1999.90;999.90;;;;;;;30.87;32.40;101123.19;15686138;28;20347;-62
2021/06/16 15:55:22;;;;;;;1999.90;999.90;;;;;;;30.62;31.60;101111.66;15685607;28;20711;-62
2021/06/16 16:02:55;;;;;;;1999.90;999.90;;;;;;;31.12;31.09;101099.25;15650120;28;20052;-62
2021/06/16 16:10:28;;;;;;;1999.90;999.90;;;;;;;30.58;31.78;101093.69;15684657;28;20055;-62
2021/06/16 16:18:00;;;;;;;1999.90;999.90;;;;;;;30.49;31.84;101097.28;15666950;28;20448;-61
2021/06/16 16:25:35;;;;;;;1999.90;999.90;;;;;;;30.42;32.33;101086.78;15684000;28;20044;-63
2021/06/16 16:33:08;;;;;;;1999.90;999.90;;;;;;;30.23;32.60;101087.06;15665550;28;20052;-63
2021/06/16 16:40:42;;;;;;;1999.90;999.90;;;;;;;30.11;32.34;101083.69;15681258;28;20044;-63
2021/06/16 16:48:14;;;;;;;1999.90;999.90;;;;;;;30.00;32.30;101082.41;15664363;28;20057;-63
2021/06/16 16:55:48;;;;;;;1999.90;999.90;;;;;;;29.90;32.47;101085.13;15663921;28;20113;-61
2021/06/16 17:03:20;;;;;;;1999.90;999.90;;;;;;;29.85;32.82;101077.09;15666175;28;20136;-63
2021/06/16 17:10:54;;;;;;;1999.90;999.90;;;;;;;29.98;32.55;101068.47;15663280;28;20124;-64
2021/06/16 17:18:26;;;;;;;1999.90;999.90;;;;;;;29.66;32.86;101068.66;15679734;28;20048;-63
2021/06/16 17:26:00;;;;;;;1999.90;999.90;;;;;;;29.64;33.69;101069.13;15681044;28;20076;-62
2021/06/16 17:33:32;;;;;;;1999.90;999.90;;;;;;;29.58;33.68;101076.69;15680973;28;20075;-63
2021/06/16 17:41:05;;;;;;;1999.90;999.90;;;;;;;29.46;33.64;101075.34;15680365;28;20272;-61
2021/06/16 17:48:38;;;;;;;1999.90;999.90;;;;;;;29.37;33.91;101075.22;15661571;28;20045;-63
2021/06/16 17:56:11;;;;;;;1999.90;999.90;;;;;;;29.02;33.63;101074.97;15680366;28;20128;-63
2021/06/16 18:03:43;;;;;;;1999.90;999.90;;;;;;;28.75;34.07;101083.03;15631380;28;20426;-64
2021/06/16 18:11:17;;;;;;;1999.90;999.90;;;;;;;28.44;34.37;101076.84;15661844;28;20135;-61
2021/06/16 18:18:51;;;;;;;1999.90;999.90;;;;;;;28.26;34.65;101093.69;15660739;28;20071;-60
2021/06/16 18:26:25;;;;;;;1999.90;999.90;;;;;;;28.28;34.84;101091.22;15681491;28;20056;-63
2021/06/16 18:33:57;;;;;;;1999.90;999.90;;;;;;;27.84;35.99;101093.41;15644560;28;20083;-63
2021/06/16 18:41:30;;;;;;;;;;;;;;;27.81;35.48;101092.22;15611930;28;20052;-63
2021/06/16 18:49:02;;;;;;;1999.90;999.90;;;;;;;27.43;36.55;101082.38;15631373;28;19932;-63
2021/06/16 18:56:42;;;;;;;1999.90;999.90;;;;;;;27.26;36.66;101088.03;15680141;28;20048;-64
2021/06/16 19:04:24;;;;;;;1999.90;999.90;;;;;;;26.94;37.23;101087.81;15670909;28;20037;-62
2021/06/16 19:11:57;;;;;;;1999.90;999.90;;;;;;;26.71;37.36;101098.00;15688086;28;20049;-59
2021/06/16 19:19:31;;;;;;;1999.90;999.90;;;;;;;26.41;37.78;101092.38;15669662;28;20041;-61
2021/06/16 19:27:06;;;;;;;1999.90;999.90;;;;;;;26.33;37.61;101105.97;15684302;28;20053;-63
2021/06/16 19:34:39;;;;;;;1999.90;999.90;;;;;;;26.10;38.36;101103.84;15684178;28;20506;-62
2021/06/16 19:42:14;;;;;;;1999.90;999.90;;;;;;;25.98;38.50;101103.63;15683652;28;20049;-62
2021/06/16 19:49:46;;;;;;;1999.90;999.90;;;;;;;25.68;39.05;101113.00;15653438;28;20073;-64
2021/06/16 19:57:19;;;;;;;1999.90;999.90;;;;;;;25.56;39.22;101100.06;15685899;28;20044;-64
2021/06/16 20:04:51;;;;;;;1999.90;999.90;;;;;;;25.41;39.65;101119.41;15667243;28;20044;-64
2021/06/16 20:12:25;;;;;;;1999.90;999.90;;;;;;;25.26;40.01;101118.78;15684546;28;20056;-64
2021/06/16 20:19:57;;;;;;;1999.90;999.90;;;;;;;25.03;39.88;101128.00;15666465;28;20037;-63
2021/06/16 20:27:30;;;;;;;1999.90;999.90;;;;;;;24.82;40.69;101133.88;15682179;28;20124;-63
2021/06/16 20:35:03;;;;;;;1999.90;999.90;;;;;;;24.60;42.06;101124.69;15664154;28;20045;-61
2021/06/16 20:42:37;;;;;;;1999.90;999.90;;;;;;;24.51;43.52;101138.59;15660886;28;20049;-62
2021/06/16 20:50:09;;;;;;;1999.90;999.90;;;;;;;24.26;42.85;101135.88;15669650;28;20064;-63
2021/06/16 20:57:43;;;;;;;1999.90;999.90;;;;;;;24.11;43.17;101129.47;15662837;28;20124;-64
2021/06/16 21:05:16;;;;;;;1999.90;999.90;;;;;;;24.01;42.67;101141.72;15670360;28;20079;-63
2021/06/16 21:12:50;;;;;;;1999.90;999.90;;;;;;;23.93;43.55;101142.16;15672264;28;20529;-64
2021/06/16 21:20:22;;;;;;;1999.90;999.90;;;;;;;23.74;43.91;101143.47;15678379;28;20045;-63
2021/06/16 21:27:55;;;;;;;1999.90;999.90;;;;;;;23.68;43.10;101145.94;15678943;28;20059;-64
2021/06/16 21:35:28;;;;;;;1999.90;999.90;;;;;;;23.58;43.72;101135.38;15672611;28;20417;-63
2021/06/16 21:43:03;;;;;;;1999.90;999.90;;;;;;;23.42;43.29;101132.16;15660898;28;20041;-64
2021/06/16 21:50:35;;;;;;;1999.90;999.90;;;;;;;23.41;43.90;101133.38;15660979;28;20048;-64
2021/06/16 21:58:09;;;;;;;1999.90;999.90;;;;;;;23.19;44.08;101127.75;15660773;28;20049;-64
2021/06/16 22:05:42;;;;;;;1999.90;999.90;;;;;;;23.14;45.20;101133.88;15676825;28;20115;-64
2021/06/16 22:13:15;;;;;;;1999.90;999.90;;;;;;;22.98;44.98;101134.28;15677334;28;20043;-64
2021/06/16 22:20:49;;;;;;;1999.90;999.90;;;;;;;22.87;46.09;101124.94;15677549;28;20045;-64
2021/06/16 22:28:23;;;;;;;1999.90;999.90;;;;;;;22.77;45.94;101129.38;15675940;28;20048;-64
2021/06/16 22:35:56;;;;;;;1999.90;999.90;;;;;;;22.62;47.72;101126.97;15676167;28;20056;-66
2021/06/16 22:43:29;;;;;;;;;;;;;;;22.69;48.96;101126.94;15653347;28;20052;-64
2021/06/16 22:51:01;;;;;;;1999.90;999.90;;;;;;;22.62;48.55;101127.78;15675383;28;19931;-66
2021/06/16 22:58:35;;;;;;;1999.90;999.90;;;;;;;22.34;49.73;101128.56;15658330;28;20045;-66
2021/06/16 23:06:07;;;;;;;1999.90;999.90;;;;;;;22.19;48.84;101122.00;15672528;28;20685;-66
2021/06/16 23:13:40;;;;;;;1999.90;999.90;;;;;;;22.11;48.87;101119.59;15657388;28;20585;-65
2021/06/16 23:21:12;;;;;;;1999.90;999.90;;;;;;;22.28;50.10;101112.28;15640625;28;20037;-66
2021/06/16 23:28:46;;;;;;;1999.90;999.90;;;;;;;21.99;51.58;101100.00;15683779;28;20044;-65
2021/06/16 23:36:18;;;;;;;1999.90;999.90;;;;;;;22.02;51.48;101108.56;15683084;28;20072;-65
2021/06/16 23:43:51;;;;;;;1999.90;999.90;;;;;;;21.75;51.76;101122.25;15685403;28;20120;-65
2021/06/16 23:51:24;;;;;;;1999.90;999.90;;;;;;;21.55;51.46;101116.09;15684930;28;20041;-65
2021/06/16 23:58:57;;;;;;;1999.90;999.90;;;;;;;21.61;52.37;101113.69;15684962;28;20052;-65
